sensor_id;sensor_type;location;lat;lon;timestamp;P1;durP1;ratioP1;P2;durP2;ratioP2
5195;SDS011;2617;51.006;12.436;2023-02-07T00:00:41;93.73;;;10.63;;
5195;SDS011;2617;51.006;12.436;2023-02-07T00:05:43;25.40;;;7.53;;
5195;SDS011;2617;51.006;12.436;2023-02-07T00:10:51;64.23;;;9.77;;
5195;SDS011;2617;51.006;12.436;2023-02-07T00:15:54;56.92;;;9.75;;
5195;SDS011;2617;51.006;12.436;2023-02-07T00:20:58;33.80;;;8.50;;
5195;SDS011;2617;51.006;12.436;2023-02-07T00:26:00;21.23;;;8.00;;
5195;SDS011;2617;51.006;12.436;2023-02-07T00:31:06;14.20;;;7.53;;
5195;SDS011;2617;51.006;12.436;2023-02-07T00:36:13;15.80;;;8.00;;
5195;SDS011;2617;51.006;12.436;2023-02-07T00:41:15;37.60;;;9.40;;
5195;SDS011;2617;51.006;12.436;2023-02-07T00:46:17;14.50;;;7.77;;
5195;SDS011;2617;51.006;12.436;2023-02-07T00:51:21;19.45;;;9.05;;
5195;SDS011;2617;51.006;12.436;2023-02-07T00:56:23;18.97;;;7.37;;
5195;SDS011;2617;51.006;12.436;2023-02-07T01:01:25;28.83;;;9.47;;
5195;SDS011;2617;51.006;12.436;2023-02-07T01:06:28;21.60;;;7.27;;
5195;SDS011;2617;51.006;12.436;2023-02-07T01:11:31;15.80;;;7.20;;
5195;SDS011;2617;51.006;12.436;2023-02-07T01:16:35;15.73;;;7.57;;
5195;SDS011;2617;51.006;12.436;2023-02-07T01:21:37;43.97;;;9.53;;
5195;SDS011;2617;51.006;12.436;2023-02-07T01:26:39;12.17;;;7.37;;
5195;SDS011;2617;51.006;12.436;2023-02-07T01:31:42;20.50;;;9.40;;
5195;SDS011;2617;51.006;12.436;2023-02-07T01:36:44;20.77;;;9.05;;
5195;SDS011;2617;51.006;12.436;2023-02-07T01:41:47;22.80;;;8.57;;
5195;SDS011;2617;51.006;12.436;2023-02-07T01:46:51;33.37;;;9.07;;
5195;SDS011;2617;51.006;12.436;2023-02-07T01:51:55;72.77;;;12.17;;
5195;SDS011;2617;51.006;12.436;2023-02-07T01:56:57;17.03;;;9.10;;
5195;SDS011;2617;51.006;12.436;2023-02-07T02:01:59;17.55;;;8.73;;
5195;SDS011;2617;51.006;12.436;2023-02-07T02:07:03;25.53;;;9.10;;
5195;SDS011;2617;51.006;12.436;2023-02-07T02:12:29;17.70;;;7.50;;
5195;SDS011;2617;51.006;12.436;2023-02-07T02:18:12;16.23;;;8.40;;
5195;SDS011;2617;51.006;12.436;2023-02-07T02:23:41;15.77;;;8.27;;
5195;SDS011;2617;51.006;12.436;2023-02-07T02:28:57;30.70;;;8.70;;
5195;SDS011;2617;51.006;12.436;2023-02-07T02:34:21;11.20;;;7.68;;
5195;SDS011;2617;51.006;12.436;2023-02-07T02:44:55;16.70;;;7.60;;
5195;SDS011;2617;51.006;12.436;2023-02-07T02:49:59;27.23;;;7.70;;
5195;SDS011;2617;51.006;12.436;2023-02-07T02:55:01;20.53;;;8.17;;
5195;SDS011;2617;51.006;12.436;2023-02-07T03:11:16;29.60;;;11.60;;
5195;SDS011;2617;51.006;12.436;2023-02-07T03:16:19;21.90;;;11.03;;
5195;SDS011;2617;51.006;12.436;2023-02-07T03:21:42;21.63;;;10.33;;
5195;SDS011;2617;51.006;12.436;2023-02-07T03:26:53;17.23;;;8.88;;
5195;SDS011;2617;51.006;12.436;2023-02-07T03:31:55;30.23;;;10.07;;
5195;SDS011;2617;51.006;12.436;2023-02-07T03:36:59;21.40;;;10.90;;
5195;SDS011;2617;51.006;12.436;2023-02-07T03:42:07;25.40;;;11.63;;
5195;SDS011;2617;51.006;12.436;2023-02-07T03:47:10;27.47;;;9.67;;
5195;SDS011;2617;51.006;12.436;2023-02-07T03:52:12;23.60;;;12.07;;
5195;SDS011;2617;51.006;12.436;2023-02-07T03:57:14;20.50;;;9.70;;
5195;SDS011;2617;51.006;12.436;2023-02-07T04:02:18;15.70;;;8.10;;
5195;SDS011;2617;51.006;12.436;2023-02-07T04:07:21;22.56;;;9.04;;
5195;SDS011;2617;51.006;12.436;2023-02-07T04:12:24;15.17;;;8.80;;
5195;SDS011;2617;51.006;12.436;2023-02-07T04:17:26;20.57;;;11.43;;
5195;SDS011;2617;51.006;12.436;2023-02-07T04:22:29;14.70;;;7.50;;
5195;SDS011;2617;51.006;12.436;2023-02-07T04:27:31;31.63;;;8.77;;
5195;SDS011;2617;51.006;12.436;2023-02-07T04:32:33;18.05;;;9.13;;
5195;SDS011;2617;51.006;12.436;2023-02-07T04:37:36;23.37;;;10.27;;
5195;SDS011;2617;51.006;12.436;2023-02-07T04:42:38;21.85;;;10.40;;
5195;SDS011;2617;51.006;12.436;2023-02-07T04:47:41;20.90;;;11.13;;
5195;SDS011;2617;51.006;12.436;2023-02-07T04:52:43;21.67;;;10.70;;
5195;SDS011;2617;51.006;12.436;2023-02-07T04:57:46;23.37;;;10.77;;
5195;SDS011;2617;51.006;12.436;2023-02-07T05:02:48;14.27;;;9.27;;
5195;SDS011;2617;51.006;12.436;2023-02-07T05:07:52;24.92;;;11.12;;
5195;SDS011;2617;51.006;12.436;2023-02-07T05:12:54;25.67;;;12.07;;
5195;SDS011;2617;51.006;12.436;2023-02-07T05:17:57;21.34;;;11.18;;
5195;SDS011;2617;51.006;12.436;2023-02-07T05:23:00;17.40;;;10.10;;
5195;SDS011;2617;51.006;12.436;2023-02-07T05:28:02;23.73;;;10.57;;
5195;SDS011;2617;51.006;12.436;2023-02-07T05:33:05;21.87;;;11.33;;
5195;SDS011;2617;51.006;12.436;2023-02-07T05:38:10;19.57;;;11.00;;
5195;SDS011;2617;51.006;12.436;2023-02-07T05:43:12;25.67;;;10.20;;
5195;SDS011;2617;51.006;12.436;2023-02-07T05:48:14;20.53;;;10.67;;
5195;SDS011;2617;51.006;12.436;2023-02-07T05:53:16;24.90;;;10.77;;
5195;SDS011;2617;51.006;12.436;2023-02-07T05:58:19;18.53;;;9.70;;
5195;SDS011;2617;51.006;12.436;2023-02-07T06:03:22;27.00;;;11.34;;
5195;SDS011;2617;51.006;12.436;2023-02-07T06:08:26;20.87;;;10.20;;
5195;SDS011;2617;51.006;12.436;2023-02-07T06:13:28;16.90;;;9.57;;
5195;SDS011;2617;51.006;12.436;2023-02-07T06:18:30;24.70;;;10.50;;
5195;SDS011;2617;51.006;12.436;2023-02-07T06:23:33;17.50;;;8.33;;
5195;SDS011;2617;51.006;12.436;2023-02-07T06:28:35;18.13;;;7.40;;
5195;SDS011;2617;51.006;12.436;2023-02-07T06:33:38;16.70;;;9.60;;
5195;SDS011;2617;51.006;12.436;2023-02-07T06:38:41;18.83;;;9.37;;
5195;SDS011;2617;51.006;12.436;2023-02-07T06:43:43;22.87;;;9.40;;
5195;SDS011;2617;51.006;12.436;2023-02-07T06:48:46;20.80;;;9.35;;
5195;SDS011;2617;51.006;12.436;2023-02-07T06:53:48;16.10;;;8.63;;
5195;SDS011;2617;51.006;12.436;2023-02-07T06:58:51;23.90;;;10.83;;
5195;SDS011;2617;51.006;12.436;2023-02-07T07:03:54;19.60;;;9.00;;
5195;SDS011;2617;51.006;12.436;2023-02-07T07:08:56;18.60;;;9.33;;
5195;SDS011;2617;51.006;12.436;2023-02-07T07:13:59;23.17;;;10.57;;
5195;SDS011;2617;51.006;12.436;2023-02-07T07:19:03;25.30;;;9.63;;
5195;SDS011;2617;51.006;12.436;2023-02-07T07:24:05;26.93;;;10.07;;
5195;SDS011;2617;51.006;12.436;2023-02-07T07:29:08;22.17;;;9.20;;
5195;SDS011;2617;51.006;12.436;2023-02-07T07:34:11;23.67;;;9.60;;
5195;SDS011;2617;51.006;12.436;2023-02-07T07:39:13;30.30;;;10.67;;
5195;SDS011;2617;51.006;12.436;2023-02-07T07:44:16;35.13;;;13.17;;
5195;SDS011;2617;51.006;12.436;2023-02-07T07:49:18;29.47;;;11.33;;
5195;SDS011;2617;51.006;12.436;2023-02-07T07:54:21;28.00;;;11.87;;
5195;SDS011;2617;51.006;12.436;2023-02-07T07:59:23;31.90;;;13.00;;
5195;SDS011;2617;51.006;12.436;2023-02-07T08:04:26;30.83;;;13.07;;
5195;SDS011;2617;51.006;12.436;2023-02-07T08:09:28;28.60;;;11.40;;
5195;SDS011;2617;51.006;12.436;2023-02-07T08:14:31;36.37;;;15.17;;
5195;SDS011;2617;51.006;12.436;2023-02-07T08:19:34;35.25;;;12.25;;
5195;SDS011;2617;51.006;12.436;2023-02-07T08:24:36;33.80;;;14.60;;
5195;SDS011;2617;51.006;12.436;2023-02-07T08:29:39;30.40;;;13.40;;
5195;SDS011;2617;51.006;12.436;2023-02-07T08:34:41;29.07;;;14.27;;
5195;SDS011;2617;51.006;12.436;2023-02-07T08:39:44;30.43;;;14.33;;
5195;SDS011;2617;51.006;12.436;2023-02-07T08:44:46;50.03;;;24.57;;
5195;SDS011;2617;51.006;12.436;2023-02-07T08:49:48;32.30;;;16.00;;
5195;SDS011;2617;51.006;12.436;2023-02-07T08:54:51;25.30;;;13.40;;
5195;SDS011;2617;51.006;12.436;2023-02-07T08:59:53;29.70;;;14.30;;
5195;SDS011;2617;51.006;12.436;2023-02-07T09:04:56;37.23;;;14.23;;
5195;SDS011;2617;51.006;12.436;2023-02-07T09:09:58;35.30;;;12.37;;
5195;SDS011;2617;51.006;12.436;2023-02-07T09:15:01;34.97;;;13.50;;
5195;SDS011;2617;51.006;12.436;2023-02-07T09:20:04;34.50;;;15.10;;
5195;SDS011;2617;51.006;12.436;2023-02-07T09:25:06;32.73;;;14.57;;
5195;SDS011;2617;51.006;12.436;2023-02-07T09:30:09;32.43;;;13.90;;
5195;SDS011;2617;51.006;12.436;2023-02-07T09:35:12;37.07;;;14.83;;
5195;SDS011;2617;51.006;12.436;2023-02-07T09:40:16;34.30;;;14.90;;
5195;SDS011;2617;51.006;12.436;2023-02-07T09:45:18;35.07;;;14.43;;
5195;SDS011;2617;51.006;12.436;2023-02-07T09:50:22;37.20;;;15.07;;
5195;SDS011;2617;51.006;12.436;2023-02-07T09:55:27;23.80;;;13.18;;
5195;SDS011;2617;51.006;12.436;2023-02-07T10:00:32;30.97;;;14.07;;
5195;SDS011;2617;51.006;12.436;2023-02-07T10:05:41;37.20;;;16.80;;
5195;SDS011;2617;51.006;12.436;2023-02-07T10:10:46;36.37;;;15.27;;
5195;SDS011;2617;51.006;12.436;2023-02-07T10:15:55;34.00;;;16.27;;
5195;SDS011;2617;51.006;12.436;2023-02-07T10:21:19;33.37;;;16.40;;
5195;SDS011;2617;51.006;12.436;2023-02-07T10:26:26;32.90;;;17.57;;
5195;SDS011;2617;51.006;12.436;2023-02-07T10:31:31;35.47;;;15.43;;
5195;SDS011;2617;51.006;12.436;2023-02-07T10:36:33;33.00;;;15.60;;
5195;SDS011;2617;51.006;12.436;2023-02-07T10:41:37;31.65;;;16.25;;
5195;SDS011;2617;51.006;12.436;2023-02-07T10:46:40;35.27;;;18.27;;
5195;SDS011;2617;51.006;12.436;2023-02-07T10:51:43;39.73;;;16.37;;
5195;SDS011;2617;51.006;12.436;2023-02-07T10:56:48;31.67;;;15.20;;
5195;SDS011;2617;51.006;12.436;2023-02-07T11:01:51;36.37;;;14.60;;
5195;SDS011;2617;51.006;12.436;2023-02-07T11:06:58;35.43;;;16.60;;
5195;SDS011;2617;51.006;12.436;2023-02-07T11:12:04;32.20;;;16.20;;
5195;SDS011;2617;51.006;12.436;2023-02-07T11:17:04;27.60;;;15.30;;
5195;SDS011;2617;51.006;12.436;2023-02-07T11:22:12;28.53;;;13.07;;
5195;SDS011;2617;51.006;12.436;2023-02-07T11:27:13;25.90;;;12.80;;
5195;SDS011;2617;51.006;12.436;2023-02-07T11:32:17;29.10;;;14.60;;
5195;SDS011;2617;51.006;12.436;2023-02-07T11:37:22;29.80;;;13.23;;
5195;SDS011;2617;51.006;12.436;2023-02-07T11:42:29;26.80;;;12.63;;
5195;SDS011;2617;51.006;12.436;2023-02-07T11:47:31;29.98;;;15.13;;
5195;SDS011;2617;51.006;12.436;2023-02-07T11:52:36;29.50;;;15.37;;
5195;SDS011;2617;51.006;12.436;2023-02-07T11:57:37;33.87;;;15.30;;
5195;SDS011;2617;51.006;12.436;2023-02-07T12:02:39;33.03;;;15.17;;
5195;SDS011;2617;51.006;12.436;2023-02-07T12:07:43;29.65;;;14.85;;
5195;SDS011;2617;51.006;12.436;2023-02-07T12:12:50;29.45;;;14.73;;
5195;SDS011;2617;51.006;12.436;2023-02-07T12:17:55;27.10;;;13.50;;
5195;SDS011;2617;51.006;12.436;2023-02-07T12:23:05;30.33;;;15.37;;
5195;SDS011;2617;51.006;12.436;2023-02-07T12:28:32;33.53;;;16.30;;
5195;SDS011;2617;51.006;12.436;2023-02-07T12:33:41;28.03;;;14.50;;
5195;SDS011;2617;51.006;12.436;2023-02-07T12:39:00;33.87;;;14.23;;
5195;SDS011;2617;51.006;12.436;2023-02-07T12:44:07;23.93;;;12.27;;
5195;SDS011;2617;51.006;12.436;2023-02-07T12:54:52;32.43;;;16.50;;
5195;SDS011;2617;51.006;12.436;2023-02-07T13:00:04;28.52;;;14.45;;
5195;SDS011;2617;51.006;12.436;2023-02-07T13:10:43;35.00;;;15.52;;
5195;SDS011;2617;51.006;12.436;2023-02-07T13:15:57;32.90;;;15.10;;
5195;SDS011;2617;51.006;12.436;2023-02-07T13:21:08;26.65;;;13.02;;
5195;SDS011;2617;51.006;12.436;2023-02-07T13:26:09;36.67;;;15.00;;
5195;SDS011;2617;51.006;12.436;2023-02-07T13:31:14;31.97;;;17.77;;
5195;SDS011;2617;51.006;12.436;2023-02-07T13:36:29;30.50;;;13.00;;
5195;SDS011;2617;51.006;12.436;2023-02-07T13:41:55;28.73;;;15.60;;
5195;SDS011;2617;51.006;12.436;2023-02-07T13:47:32;32.50;;;16.08;;
5195;SDS011;2617;51.006;12.436;2023-02-07T13:58:04;33.40;;;15.23;;
5195;SDS011;2617;51.006;12.436;2023-02-07T14:03:17;35.23;;;15.00;;
5195;SDS011;2617;51.006;12.436;2023-02-07T14:08:21;27.53;;;13.40;;
5195;SDS011;2617;51.006;12.436;2023-02-07T14:13:29;31.87;;;14.75;;
5195;SDS011;2617;51.006;12.436;2023-02-07T14:18:43;30.98;;;14.02;;
5195;SDS011;2617;51.006;12.436;2023-02-07T14:23:57;39.90;;;16.03;;
5195;SDS011;2617;51.006;12.436;2023-02-07T14:40:18;26.00;;;12.93;;
5195;SDS011;2617;51.006;12.436;2023-02-07T14:45:20;25.57;;;13.03;;
5195;SDS011;2617;51.006;12.436;2023-02-07T14:50:24;27.83;;;13.60;;
5195;SDS011;2617;51.006;12.436;2023-02-07T14:55:29;32.08;;;19.55;;
5195;SDS011;2617;51.006;12.436;2023-02-07T15:00:37;30.30;;;15.80;;
5195;SDS011;2617;51.006;12.436;2023-02-07T15:05:48;28.67;;;15.33;;
5195;SDS011;2617;51.006;12.436;2023-02-07T15:11:01;34.30;;;15.73;;
5195;SDS011;2617;51.006;12.436;2023-02-07T15:16:06;39.50;;;18.40;;
5195;SDS011;2617;51.006;12.436;2023-02-07T15:21:26;34.03;;;16.13;;
5195;SDS011;2617;51.006;12.436;2023-02-07T15:26:30;29.60;;;15.20;;
5195;SDS011;2617;51.006;12.436;2023-02-07T15:31:36;27.20;;;13.80;;
5195;SDS011;2617;51.006;12.436;2023-02-07T15:36:41;29.70;;;14.47;;
5195;SDS011;2617;51.006;12.436;2023-02-07T15:41:44;35.23;;;13.63;;
5195;SDS011;2617;51.006;12.436;2023-02-07T15:46:50;34.13;;;14.67;;
5195;SDS011;2617;51.006;12.436;2023-02-07T15:51:55;27.93;;;12.90;;
5195;SDS011;2617;51.006;12.436;2023-02-07T15:56:58;26.83;;;14.30;;
5195;SDS011;2617;51.006;12.436;2023-02-07T16:02:00;27.53;;;14.70;;
5195;SDS011;2617;51.006;12.436;2023-02-07T16:07:06;29.80;;;13.90;;
5195;SDS011;2617;51.006;12.436;2023-02-07T16:17:22;31.07;;;13.90;;
5195;SDS011;2617;51.006;12.436;2023-02-07T16:22:24;30.23;;;14.50;;
5195;SDS011;2617;51.006;12.436;2023-02-07T16:27:28;29.87;;;14.77;;
5195;SDS011;2617;51.006;12.436;2023-02-07T16:32:31;33.00;;;15.47;;
5195;SDS011;2617;51.006;12.436;2023-02-07T16:37:34;32.00;;;15.37;;
5195;SDS011;2617;51.006;12.436;2023-02-07T16:42:36;33.50;;;15.00;;
5195;SDS011;2617;51.006;12.436;2023-02-07T16:47:38;30.70;;;14.77;;
5195;SDS011;2617;51.006;12.436;2023-02-07T16:52:41;35.13;;;15.18;;
5195;SDS011;2617;51.006;12.436;2023-02-07T16:57:44;43.37;;;19.23;;
5195;SDS011;2617;51.006;12.436;2023-02-07T17:02:46;32.87;;;15.80;;
5195;SDS011;2617;51.006;12.436;2023-02-07T17:07:48;33.73;;;16.77;;
5195;SDS011;2617;51.006;12.436;2023-02-07T17:12:51;32.90;;;15.40;;
5195;SDS011;2617;51.006;12.436;2023-02-07T17:17:56;39.53;;;18.40;;
5195;SDS011;2617;51.006;12.436;2023-02-07T17:22:57;38.90;;;19.48;;
5195;SDS011;2617;51.006;12.436;2023-02-07T17:28:00;38.20;;;18.60;;
5195;SDS011;2617;51.006;12.436;2023-02-07T17:33:04;32.87;;;16.07;;
5195;SDS011;2617;51.006;12.436;2023-02-07T17:38:06;36.47;;;16.70;;
5195;SDS011;2617;51.006;12.436;2023-02-07T17:43:08;28.83;;;14.33;;
5195;SDS011;2617;51.006;12.436;2023-02-07T17:48:11;32.60;;;15.73;;
5195;SDS011;2617;51.006;12.436;2023-02-07T17:53:13;30.90;;;16.67;;
5195;SDS011;2617;51.006;12.436;2023-02-07T17:58:16;32.43;;;15.80;;
5195;SDS011;2617;51.006;12.436;2023-02-07T18:03:18;41.20;;;17.30;;
5195;SDS011;2617;51.006;12.436;2023-02-07T18:08:20;34.30;;;14.87;;
5195;SDS011;2617;51.006;12.436;2023-02-07T18:13:23;29.70;;;14.40;;
5195;SDS011;2617;51.006;12.436;2023-02-07T18:18:25;32.47;;;13.97;;
5195;SDS011;2617;51.006;12.436;2023-02-07T18:23:28;37.57;;;14.83;;
5195;SDS011;2617;51.006;12.436;2023-02-07T18:28:30;35.88;;;17.15;;
5195;SDS011;2617;51.006;12.436;2023-02-07T18:33:32;30.60;;;15.37;;
5195;SDS011;2617;51.006;12.436;2023-02-07T18:38:35;38.93;;;15.67;;
5195;SDS011;2617;51.006;12.436;2023-02-07T18:43:38;34.93;;;15.40;;
5195;SDS011;2617;51.006;12.436;2023-02-07T18:48:41;45.83;;;15.90;;
5195;SDS011;2617;51.006;12.436;2023-02-07T18:53:46;31.23;;;16.13;;
5195;SDS011;2617;51.006;12.436;2023-02-07T18:58:48;36.80;;;16.50;;
5195;SDS011;2617;51.006;12.436;2023-02-07T19:03:52;35.97;;;17.87;;
5195;SDS011;2617;51.006;12.436;2023-02-07T19:08:54;43.63;;;17.33;;
5195;SDS011;2617;51.006;12.436;2023-02-07T19:13:58;38.78;;;18.50;;
5195;SDS011;2617;51.006;12.436;2023-02-07T19:19:00;39.53;;;17.30;;
5195;SDS011;2617;51.006;12.436;2023-02-07T19:24:03;80.28;;;21.08;;
5195;SDS011;2617;51.006;12.436;2023-02-07T19:29:06;67.13;;;20.43;;
5195;SDS011;2617;51.006;12.436;2023-02-07T19:34:10;56.43;;;19.30;;
5195;SDS011;2617;51.006;12.436;2023-02-07T19:39:11;64.37;;;18.20;;
5195;SDS011;2617;51.006;12.436;2023-02-07T19:44:14;80.90;;;19.80;;
5195;SDS011;2617;51.006;12.436;2023-02-07T19:49:17;165.33;;;20.83;;
5195;SDS011;2617;51.006;12.436;2023-02-07T19:54:19;43.30;;;15.70;;
5195;SDS011;2617;51.006;12.436;2023-02-07T19:59:21;172.67;;;28.87;;
5195;SDS011;2617;51.006;12.436;2023-02-07T20:04:24;94.37;;;19.15;;
5195;SDS011;2617;51.006;12.436;2023-02-07T20:09:26;182.40;;;20.70;;
5195;SDS011;2617;51.006;12.436;2023-02-07T20:14:29;130.77;;;19.67;;
5195;SDS011;2617;51.006;12.436;2023-02-07T20:19:32;89.22;;;18.85;;
5195;SDS011;2617;51.006;12.436;2023-02-07T20:24:34;49.17;;;17.20;;
5195;SDS011;2617;51.006;12.436;2023-02-07T20:29:37;94.53;;;19.27;;
5195;SDS011;2617;51.006;12.436;2023-02-07T20:34:39;65.30;;;18.40;;
5195;SDS011;2617;51.006;12.436;2023-02-07T20:39:42;77.03;;;17.47;;
5195;SDS011;2617;51.006;12.436;2023-02-07T20:44:44;79.00;;;18.37;;
5195;SDS011;2617;51.006;12.436;2023-02-07T20:49:46;50.63;;;16.37;;
5195;SDS011;2617;51.006;12.436;2023-02-07T20:54:50;54.17;;;16.80;;
5195;SDS011;2617;51.006;12.436;2023-02-07T20:59:52;71.83;;;17.97;;
5195;SDS011;2617;51.006;12.436;2023-02-07T21:04:54;87.50;;;17.40;;
5195;SDS011;2617;51.006;12.436;2023-02-07T21:09:57;63.23;;;18.50;;
5195;SDS011;2617;51.006;12.436;2023-02-07T21:15:00;54.70;;;17.33;;
5195;SDS011;2617;51.006;12.436;2023-02-07T21:20:02;49.10;;;15.93;;
5195;SDS011;2617;51.006;12.436;2023-02-07T21:25:05;35.83;;;15.60;;
5195;SDS011;2617;51.006;12.436;2023-02-07T21:30:09;49.23;;;15.27;;
5195;SDS011;2617;51.006;12.436;2023-02-07T21:35:12;35.83;;;12.10;;
5195;SDS011;2617;51.006;12.436;2023-02-07T21:40:15;37.90;;;13.13;;
5195;SDS011;2617;51.006;12.436;2023-02-07T21:45:17;29.83;;;13.50;;
5195;SDS011;2617;51.006;12.436;2023-02-07T21:50:19;23.33;;;12.00;;
5195;SDS011;2617;51.006;12.436;2023-02-07T21:55:22;29.15;;;12.40;;
5195;SDS011;2617;51.006;12.436;2023-02-07T22:00:24;25.03;;;10.70;;
5195;SDS011;2617;51.006;12.436;2023-02-07T22:05:27;28.17;;;12.07;;
5195;SDS011;2617;51.006;12.436;2023-02-07T22:10:29;27.62;;;12.70;;
5195;SDS011;2617;51.006;12.436;2023-02-07T22:15:33;26.90;;;11.40;;
5195;SDS011;2617;51.006;12.436;2023-02-07T22:20:35;25.50;;;12.30;;
5195;SDS011;2617;51.006;12.436;2023-02-07T22:25:38;26.83;;;12.63;;
5195;SDS011;2617;51.006;12.436;2023-02-07T22:30:40;33.20;;;12.60;;
5195;SDS011;2617;51.006;12.436;2023-02-07T22:35:42;27.53;;;13.00;;
5195;SDS011;2617;51.006;12.436;2023-02-07T22:40:45;29.37;;;12.00;;
5195;SDS011;2617;51.006;12.436;2023-02-07T22:45:47;41.33;;;13.20;;
5195;SDS011;2617;51.006;12.436;2023-02-07T22:50:49;22.63;;;11.53;;
5195;SDS011;2617;51.006;12.436;2023-02-07T22:55:52;24.40;;;11.87;;
5195;SDS011;2617;51.006;12.436;2023-02-07T23:00:54;27.27;;;12.53;;
5195;SDS011;2617;51.006;12.436;2023-02-07T23:05:57;24.73;;;12.40;;
5195;SDS011;2617;51.006;12.436;2023-02-07T23:11:00;24.75;;;13.25;;
5195;SDS011;2617;51.006;12.436;2023-02-07T23:16:02;22.20;;;9.77;;
5195;SDS011;2617;51.006;12.436;2023-02-07T23:21:07;24.03;;;11.67;;
5195;SDS011;2617;51.006;12.436;2023-02-07T23:26:09;23.93;;;11.23;;
5195;SDS011;2617;51.006;12.436;2023-02-07T23:31:12;28.05;;;11.25;;
5195;SDS011;2617;51.006;12.436;2023-02-07T23:36:15;26.30;;;11.87;;
5195;SDS011;2617;51.006;12.436;2023-02-07T23:41:17;22.93;;;10.37;;
5195;SDS011;2617;51.006;12.436;2023-02-07T23:46:21;21.47;;;11.57;;
5195;SDS011;2617;51.006;12.436;2023-02-07T23:51:24;20.08;;;11.00;;
5195;SDS011;2617;51.006;12.436;2023-02-07T23:56:26;23.40;;;13.20;;
